Main page
METAR-TAF:

METAR-TAF

Airports :

Majuro, Majuro Atoll, Marshall Islands

Marshall Islands International Airport

latitude: 07-04N, longitude: 171-17E, elevation: 2 m

Current weather observation

The report was made 13 hours and 35 minutes ago, at 20:59 UTC
Wind 14 kt from the East/Northeast
Temperature 28°C
Humidity 84%
Pressure 1011 hPa
Visibility: 24.1 km
Few clouds at a height of 1500 ft
Scattered clouds at a height of 5000 ft
Broken clouds at a height of 12000 ft
Overcast at a height of 30000 ft

METAR: PKMJ 272059Z 06014KT 15SM FEW015 SCT050 BKN120 OVC300 28/25 A2985

Time: 22:34 (10:34 UTC)

Forecast

The report was made 5 hours and 14 minutes ago, at 05:20 UTC
Forecast valid from 28 at 06 UTC to 29 at 06 UTC
Wind 14 kt from the East/Northeast
Visibility: 10 km
Scattered clouds at a height of 1500 ft
Scattered clouds at a height of 5000 ft
Broken clouds at a height of 12000 ft

TAF: PKMJ 280520Z 2806/2906 06014KT P6SM SCT015 SCT050 BKN120

Weather observations and forecasts of more than 4000 airports (METAR and TAF reports).

The available stations are represented by yellow and red dots on the map.

Hover mouse over dot to see the name of the station.

Then click to see weather observations and forecasts.

To change the map : click on the green buttons with a black cross to zoom in, on the green button with a dash to zoom out, or on the green arrows for adjacent maps.


METAR-TAF: